createdAt,value
2023-03-07T00:01:57.640Z,0.95
2023-03-07T00:04:24.231Z,0.96
2023-03-07T00:06:50.961Z,0.92
2023-03-07T00:09:17.534Z,0.97
2023-03-07T00:11:44.418Z,0.92
2023-03-07T00:14:11.333Z,0.84
2023-03-07T00:16:37.961Z,0.86
2023-03-07T00:19:05.207Z,0.89
2023-03-07T00:21:32.546Z,0.84
2023-03-07T00:23:59.224Z,0.85
2023-03-07T00:26:27.064Z,0.95
2023-03-07T00:28:55.017Z,0.85
2023-03-07T00:31:23.042Z,0.85
2023-03-07T00:33:49.728Z,0.90
2023-03-07T00:36:19.599Z,0.90
2023-03-07T00:38:46.704Z,0.86
2023-03-07T00:41:19.541Z,0.87
2023-03-07T00:43:47.182Z,1.00
2023-03-07T00:46:14.952Z,0.96
2023-03-07T00:48:41.581Z,1.07
2023-03-07T00:51:10.143Z,1.12
2023-03-07T00:53:37.499Z,1.07
2023-03-07T00:56:05.858Z,0.94
2023-03-07T00:58:35.724Z,1.40
2023-03-07T01:01:04.912Z,1.19
2023-03-07T01:03:32.495Z,1.15
2023-03-07T01:06:03.016Z,1.25
2023-03-07T01:08:30.580Z,1.09
2023-03-07T01:11:02.315Z,1.11
2023-03-07T01:13:30.247Z,1.07
2023-03-07T01:16:26.725Z,0.95
2023-03-07T01:18:56.315Z,0.93
2023-03-07T01:21:24.694Z,0.92
2023-03-07T01:23:52.136Z,0.96
2023-03-07T01:26:30.344Z,0.95
2023-03-07T01:28:59.622Z,0.95
2023-03-07T01:31:27.187Z,0.98
2023-03-07T01:33:54.149Z,0.98
2023-03-07T01:36:30.543Z,1.08
2023-03-07T01:39:17.029Z,1.05
2023-03-07T01:41:54.746Z,1.05
2023-03-07T01:44:26.220Z,0.99
2023-03-07T01:47:00.879Z,1.10
2023-03-07T01:49:47.872Z,0.97
2023-03-07T01:52:30.246Z,0.90
2023-03-07T01:55:05.349Z,0.93
2023-03-07T01:57:35.846Z,1.00
2023-03-07T02:00:08.616Z,1.02
2023-03-07T02:02:42.834Z,0.97
2023-03-07T02:05:17.850Z,1.02
2023-03-07T02:07:50.207Z,1.14
2023-03-07T02:10:23.035Z,1.10
2023-03-07T02:12:51.903Z,1.11
2023-03-07T02:15:18.769Z,1.11
2023-03-07T02:17:46.613Z,1.08
2023-03-07T02:20:50.846Z,1.13
2023-03-07T02:23:33.730Z,1.38
2023-03-07T02:26:11.172Z,1.41
2023-03-07T02:28:40.071Z,1.43
2023-03-07T02:31:08.383Z,1.43
2023-03-07T02:33:36.916Z,1.38
2023-03-07T02:36:30.844Z,1.50
2023-03-07T02:39:15.468Z,1.54
2023-03-07T02:41:43.055Z,1.67
2023-03-07T02:44:18.480Z,1.58
2023-03-07T02:46:45.283Z,1.79
2023-03-07T02:49:11.958Z,1.54
2023-03-07T02:51:39.254Z,1.51
2023-03-07T02:54:06.151Z,1.63
2023-03-07T02:56:32.877Z,1.52
2023-03-07T02:58:59.447Z,1.42
2023-03-07T03:01:26.150Z,1.37
2023-03-07T03:03:53.145Z,1.30
2023-03-07T03:06:19.759Z,1.28
2023-03-07T03:08:46.618Z,1.41
2023-03-07T03:11:13.290Z,1.54
2023-03-07T03:13:40.147Z,1.34
2023-03-07T03:16:07.514Z,1.46
2023-03-07T03:18:34.184Z,1.52
2023-03-07T03:21:06.608Z,1.51
2023-03-07T03:23:33.378Z,1.53
2023-03-07T03:26:02.202Z,1.61
2023-03-07T03:28:31.593Z,1.61
2023-03-07T03:31:04.860Z,1.57
2023-03-07T03:33:32.338Z,1.63
2023-03-07T03:36:00.862Z,1.84
2023-03-07T03:38:27.498Z,1.87
2023-03-07T03:40:55.781Z,1.76
2023-03-07T03:43:25.845Z,1.78
2023-03-07T03:45:56.889Z,1.82
2023-03-07T03:48:25.917Z,1.70
2023-03-07T03:51:07.323Z,1.64
2023-03-07T03:53:36.590Z,1.72
2023-03-07T03:56:03.128Z,1.73
2023-03-07T03:58:30.631Z,1.61
2023-03-07T04:00:57.659Z,1.57
2023-03-07T04:03:24.248Z,1.64
2023-03-07T04:05:51.052Z,1.78
2023-03-07T04:08:17.642Z,1.88
2023-03-07T04:10:44.376Z,1.64
2023-03-07T04:13:11.172Z,1.67
2023-03-07T04:15:38.024Z,1.89
2023-03-07T04:18:04.595Z,1.69
2023-03-07T04:20:31.300Z,1.74
2023-03-07T04:22:57.989Z,1.73
2023-03-07T04:25:24.659Z,1.60
2023-03-07T04:27:51.365Z,1.63
2023-03-07T04:30:18.205Z,1.45
2023-03-07T04:32:44.997Z,1.60
2023-03-07T04:35:11.901Z,1.29
2023-03-07T04:37:38.625Z,1.56
2023-03-07T04:40:05.979Z,1.50
2023-03-07T04:42:32.782Z,1.33
2023-03-07T04:44:59.787Z,1.34
2023-03-07T04:47:26.555Z,1.41
2023-03-07T04:49:53.921Z,1.17
2023-03-07T04:52:20.910Z,1.33
2023-03-07T04:54:47.557Z,1.34
2023-03-07T04:57:14.789Z,1.46
2023-03-07T04:59:42.048Z,1.29
2023-03-07T05:02:12.527Z,1.12
2023-03-07T05:04:39.623Z,1.15
2023-03-07T05:07:06.550Z,1.12
2023-03-07T05:09:33.516Z,1.08
2023-03-07T05:12:00.301Z,1.17
2023-03-07T05:14:27.190Z,1.21
2023-03-07T05:16:54.083Z,1.15
2023-03-07T05:19:20.677Z,0.82
2023-03-07T05:21:49.223Z,0.66
2023-03-07T05:24:16.609Z,0.49
2023-03-07T05:26:43.456Z,0.74
2023-03-07T05:29:10.198Z,0.59
2023-03-07T05:31:36.906Z,0.55
2023-03-07T05:34:06.269Z,0.60
2023-03-07T05:36:33.362Z,0.75
2023-03-07T05:39:00.320Z,0.48
2023-03-07T05:41:27.117Z,0.32
2023-03-07T05:43:55.493Z,0.39
2023-03-07T05:46:23.172Z,0.16
2023-03-07T05:48:50.011Z,0.33
2023-03-07T05:51:16.944Z,0.31
2023-03-07T05:53:43.641Z,0.36
2023-03-07T05:56:10.504Z,0.34
2023-03-07T05:58:37.940Z,0.07
2023-03-07T06:01:05.370Z,0.11
2023-03-07T06:03:33.142Z,0.03
2023-03-07T06:05:59.784Z,0.04
2023-03-07T06:08:26.612Z,0.17
2023-03-07T06:10:54.752Z,0.35
2023-03-07T06:13:24.276Z,0.16
2023-03-07T06:15:55.108Z,0.45
2023-03-07T06:18:23.130Z,0.30
2023-03-07T06:21:01.526Z,0.06
2023-03-07T06:23:33.824Z,0.09
2023-03-07T06:26:01.149Z,0.30
2023-03-07T06:28:28.390Z,0.52
2023-03-07T06:30:55.398Z,0.50
2023-03-07T06:33:22.976Z,0.45
2023-03-07T06:35:49.838Z,0.50
2023-03-07T06:38:17.680Z,0.70
2023-03-07T06:40:44.981Z,0.77
2023-03-07T06:43:14.910Z,0.92
2023-03-07T06:45:41.922Z,0.94
2023-03-07T06:48:09.528Z,1.02
2023-03-07T06:50:38.175Z,1.25
2023-03-07T06:53:05.152Z,1.23
2023-03-07T06:55:31.744Z,1.26
2023-03-07T06:57:58.432Z,1.11
2023-03-07T07:00:25.551Z,1.18
2023-03-07T07:02:52.607Z,1.34
2023-03-07T07:05:20.121Z,1.25
2023-03-07T07:07:46.994Z,1.39
2023-03-07T07:10:14.211Z,1.70
2023-03-07T07:12:40.900Z,1.87
2023-03-07T07:15:08.779Z,1.99
2023-03-07T07:17:41.654Z,2.13
2023-03-07T07:20:11.258Z,2.20
2023-03-07T07:22:39.807Z,2.16
2023-03-07T07:25:06.735Z,2.05
2023-03-07T07:27:33.380Z,2.22
2023-03-07T07:30:00.823Z,2.49
2023-03-07T07:32:27.634Z,2.39
2023-03-07T07:34:54.499Z,2.30
2023-03-07T07:37:21.417Z,2.53
2023-03-07T07:39:51.962Z,2.42
2023-03-07T07:42:18.749Z,2.56
2023-03-07T07:44:57.835Z,2.74
2023-03-07T07:47:25.058Z,2.82
2023-03-07T07:49:51.654Z,2.99
2023-03-07T07:52:18.543Z,3.14
2023-03-07T07:54:45.439Z,2.99
2023-03-07T07:57:12.625Z,3.28
2023-03-07T07:59:39.391Z,3.09
2023-03-07T08:02:07.574Z,3.19
2023-03-07T08:04:35.658Z,3.23
2023-03-07T08:07:02.355Z,3.53
2023-03-07T08:09:29.367Z,3.58
2023-03-07T08:11:55.890Z,3.68
2023-03-07T08:14:22.683Z,3.53
2023-03-07T08:16:49.525Z,3.49
2023-03-07T08:19:16.377Z,3.45
2023-03-07T08:21:43.156Z,3.68
2023-03-07T08:24:09.797Z,3.78
2023-03-07T08:26:36.312Z,3.78
2023-03-07T08:29:03.565Z,3.76
2023-03-07T08:31:30.286Z,4.02
2023-03-07T08:33:56.821Z,4.03
2023-03-07T08:36:23.624Z,4.37
2023-03-07T08:38:52.208Z,4.51
2023-03-07T08:41:20.844Z,4.88
2023-03-07T08:43:47.914Z,5.23
2023-03-07T08:46:16.695Z,5.54
2023-03-07T08:48:43.987Z,6.11
2023-03-07T08:51:15.824Z,5.81
2023-03-07T08:53:46.354Z,5.54
2023-03-07T08:56:19.716Z,5.58
2023-03-07T08:58:46.759Z,5.38
2023-03-07T09:01:13.433Z,5.63
2023-03-07T09:03:40.346Z,6.39
2023-03-07T09:06:07.024Z,6.77
2023-03-07T09:08:33.761Z,6.66
2023-03-07T09:11:03.598Z,6.74
2023-03-07T09:13:31.262Z,6.47
2023-03-07T09:15:58.781Z,6.73
2023-03-07T09:18:25.479Z,6.36
2023-03-07T09:20:52.189Z,6.80
2023-03-07T09:23:19.124Z,6.98
2023-03-07T09:25:45.710Z,7.07
2023-03-07T09:28:12.364Z,7.12
2023-03-07T09:30:38.988Z,7.25
2023-03-07T09:33:05.646Z,7.23
2023-03-07T09:35:32.464Z,7.32
2023-03-07T09:37:59.319Z,7.32
2023-03-07T09:40:27.753Z,7.73
2023-03-07T09:42:57.378Z,8.12
2023-03-07T09:45:38.768Z,8.04
2023-03-07T09:48:47.124Z,7.83
2023-03-07T09:51:21.625Z,7.86
2023-03-07T09:54:00.635Z,7.84
2023-03-07T09:56:33.209Z,7.16
2023-03-07T09:59:21.783Z,6.48
2023-03-07T10:01:58.923Z,6.64
2023-03-07T10:04:39.928Z,7.01
2023-03-07T10:07:11.197Z,7.19
2023-03-07T10:09:38.950Z,8.03
2023-03-07T10:12:18.415Z,8.35
2023-03-07T10:14:51.188Z,8.73
2023-03-07T10:17:27.034Z,8.71
2023-03-07T10:20:06.363Z,8.21
2023-03-07T10:22:52.114Z,8.71
2023-03-07T10:25:41.082Z,9.31
2023-03-07T10:28:21.801Z,9.70
2023-03-07T10:30:52.179Z,9.85
2023-03-07T10:33:20.027Z,9.57
2023-03-07T10:36:07.273Z,8.75
2023-03-07T10:38:40.026Z,8.43
2023-03-07T10:41:21.056Z,9.04
2023-03-07T10:43:49.808Z,10.08
2023-03-07T10:46:25.746Z,10.32
2023-03-07T10:49:10.426Z,10.71
2023-03-07T10:51:48.707Z,11.32
2023-03-07T10:54:18.928Z,11.55
2023-03-07T10:57:04.057Z,10.42
2023-03-07T10:59:30.790Z,10.24
2023-03-07T11:01:59.309Z,9.90
2023-03-07T11:04:28.895Z,9.77
2023-03-07T11:07:00.726Z,10.33
2023-03-07T11:09:46.840Z,9.77
2023-03-07T11:12:19.978Z,10.01
2023-03-07T11:14:51.643Z,10.62
2023-03-07T11:17:22.524Z,11.02
2023-03-07T11:19:55.828Z,10.83
2023-03-07T11:22:38.922Z,10.60
2023-03-07T11:25:26.677Z,10.91
2023-03-07T11:27:56.069Z,11.16
2023-03-07T11:30:45.385Z,11.44
2023-03-07T11:33:24.291Z,11.40
2023-03-07T11:36:12.741Z,11.57
2023-03-07T11:38:51.526Z,12.07
2023-03-07T11:41:21.022Z,12.17
2023-03-07T11:43:56.384Z,11.81
2023-03-07T11:46:43.802Z,11.56
2023-03-07T11:49:35.876Z,11.19
2023-03-07T11:52:22.078Z,12.04
2023-03-07T11:55:00.814Z,12.35
2023-03-07T11:57:46.615Z,11.37
2023-03-07T12:00:37.964Z,10.88
2023-03-07T12:03:19.703Z,11.64
2023-03-07T12:06:02.103Z,12.14
2023-03-07T12:08:47.499Z,11.94
2023-03-07T12:11:40.277Z,12.04
2023-03-07T12:14:28.918Z,12.99
2023-03-07T12:17:32.890Z,13.01
2023-03-07T12:20:31.104Z,12.57
2023-03-07T12:23:22.351Z,13.26
2023-03-07T12:25:53.834Z,13.41
2023-03-07T12:28:23.714Z,13.59
2023-03-07T12:31:00.811Z,12.16
2023-03-07T12:33:51.853Z,12.62
2023-03-07T12:36:32.057Z,12.47
2023-03-07T12:39:33.669Z,11.60
2023-03-07T12:42:12.490Z,12.39
2023-03-07T12:45:07.355Z,12.62
2023-03-07T12:47:52.979Z,12.38
2023-03-07T12:50:37.574Z,12.54
2023-03-07T12:53:35.657Z,13.52
2023-03-07T12:56:12.297Z,13.00
2023-03-07T12:58:59.410Z,13.45
2023-03-07T13:01:39.114Z,13.78
2023-03-07T13:04:05.915Z,14.86
2023-03-07T13:06:34.223Z,14.73
2023-03-07T13:09:04.076Z,15.31
2023-03-07T13:11:34.080Z,15.38
2023-03-07T13:14:05.512Z,14.79
2023-03-07T13:16:46.437Z,14.64
2023-03-07T13:19:31.446Z,14.47
2023-03-07T13:21:58.441Z,15.07
2023-03-07T13:24:37.411Z,15.16
2023-03-07T13:27:27.535Z,14.58
2023-03-07T13:30:06.271Z,13.73
2023-03-07T13:32:51.412Z,13.64
2023-03-07T13:35:39.344Z,14.35
2023-03-07T13:38:15.117Z,14.40
2023-03-07T13:40:45.090Z,14.22
2023-03-07T13:43:26.325Z,13.69
2023-03-07T13:46:00.348Z,13.10
2023-03-07T13:48:27.692Z,12.94
2023-03-07T13:50:54.232Z,12.61
2023-03-07T13:53:39.578Z,12.12
2023-03-07T13:56:15.268Z,13.11
2023-03-07T13:59:06.341Z,13.27
2023-03-07T14:01:44.217Z,13.27
2023-03-07T14:04:46.047Z,13.11
2023-03-07T14:07:41.232Z,12.68
2023-03-07T14:10:23.331Z,12.21
2023-03-07T14:13:01.094Z,12.23
2023-03-07T14:15:47.881Z,11.89
2023-03-07T14:18:17.382Z,12.48
2023-03-07T14:20:53.192Z,12.43
2023-03-07T14:23:58.199Z,12.69
2023-03-07T14:26:33.549Z,12.14
2023-03-07T14:29:22.226Z,11.05
2023-03-07T14:31:54.633Z,10.78
2023-03-07T14:34:21.631Z,10.82
2023-03-07T14:36:52.497Z,11.10
2023-03-07T14:39:20.557Z,10.97
2023-03-07T14:42:06.141Z,11.26
2023-03-07T14:44:44.909Z,11.43
2023-03-07T14:47:40.260Z,11.74
2023-03-07T14:50:07.169Z,12.94
2023-03-07T14:52:34.636Z,13.78
2023-03-07T14:55:05.675Z,13.87
2023-03-07T14:57:38.080Z,13.92
2023-03-07T15:00:08.180Z,13.68
2023-03-07T15:02:34.885Z,13.53
2023-03-07T15:05:02.073Z,13.58
2023-03-07T15:07:28.726Z,12.75
2023-03-07T15:09:55.454Z,12.25
2023-03-07T15:12:27.493Z,11.78
2023-03-07T15:14:59.159Z,12.44
2023-03-07T15:17:28.997Z,12.56
2023-03-07T15:20:01.029Z,12.29
2023-03-07T15:22:39.330Z,12.10
2023-03-07T15:25:16.736Z,11.43
2023-03-07T15:27:43.521Z,11.32
2023-03-07T15:30:23.787Z,10.76
2023-03-07T15:33:23.192Z,10.50
2023-03-07T15:36:12.913Z,10.69
2023-03-07T15:38:44.333Z,11.56
2023-03-07T15:41:31.654Z,11.85
2023-03-07T15:44:13.587Z,11.77
2023-03-07T15:46:44.315Z,11.26
2023-03-07T15:49:42.469Z,10.44
2023-03-07T15:52:30.591Z,9.84
2023-03-07T15:54:59.779Z,9.10
2023-03-07T15:57:38.388Z,8.75
2023-03-07T16:00:18.271Z,8.19
2023-03-07T16:02:52.902Z,7.88
2023-03-07T16:05:24.310Z,7.51
2023-03-07T16:07:53.394Z,7.27
2023-03-07T16:10:21.587Z,7.25
2023-03-07T16:12:51.611Z,7.17
2023-03-07T16:15:21.297Z,7.38
2023-03-07T16:17:53.235Z,6.86
2023-03-07T16:20:22.447Z,6.86
2023-03-07T16:22:49.201Z,6.76
2023-03-07T16:25:16.958Z,6.83
2023-03-07T16:27:49.486Z,6.60
2023-03-07T16:30:21.195Z,6.52
2023-03-07T16:32:47.902Z,6.51
2023-03-07T16:35:28.587Z,6.38
2023-03-07T16:37:56.046Z,6.34
2023-03-07T16:40:23.512Z,6.11
2023-03-07T16:42:50.779Z,6.03
2023-03-07T16:45:30.267Z,6.00
2023-03-07T16:47:59.058Z,5.85
2023-03-07T16:50:29.490Z,5.92
2023-03-07T16:52:56.288Z,5.86
2023-03-07T16:55:23.655Z,5.65
2023-03-07T16:57:54.597Z,5.52
2023-03-07T17:00:24.101Z,5.46
2023-03-07T17:02:53.199Z,5.31
2023-03-07T17:05:25.604Z,5.04
2023-03-07T17:07:56.872Z,4.77
2023-03-07T17:10:26.416Z,4.83
2023-03-07T17:12:55.157Z,4.67
2023-03-07T17:15:30.662Z,4.68
2023-03-07T17:17:58.741Z,4.51
2023-03-07T17:20:25.528Z,4.71
2023-03-07T17:22:53.628Z,4.92
2023-03-07T17:25:21.529Z,4.78
2023-03-07T17:28:04.398Z,4.54
2023-03-07T17:30:33.147Z,4.26
2023-03-07T17:33:00.947Z,4.19
2023-03-07T17:35:30.976Z,3.93
2023-03-07T17:37:57.869Z,4.06
2023-03-07T17:40:24.454Z,3.79
2023-03-07T17:42:52.082Z,3.72
2023-03-07T17:45:21.538Z,3.47
2023-03-07T17:47:54.183Z,3.36
2023-03-07T17:50:25.739Z,3.23
2023-03-07T17:52:54.662Z,3.14
2023-03-07T17:55:24.926Z,3.10
2023-03-07T17:57:52.254Z,3.02
2023-03-07T18:00:21.018Z,2.97
2023-03-07T18:02:48.494Z,2.89
2023-03-07T18:05:15.128Z,3.20
2023-03-07T18:07:42.013Z,3.01
2023-03-07T18:10:10.112Z,2.92
2023-03-07T18:12:39.049Z,2.73
2023-03-07T18:15:29.628Z,3.10
2023-03-07T18:18:06.862Z,2.88
2023-03-07T18:20:36.082Z,2.94
2023-03-07T18:23:02.843Z,2.69
2023-03-07T18:25:29.823Z,2.59
2023-03-07T18:27:56.504Z,2.52
2023-03-07T18:30:23.168Z,2.43
2023-03-07T18:32:49.915Z,2.35
2023-03-07T18:35:16.743Z,2.23
2023-03-07T18:37:45.091Z,2.18
2023-03-07T18:40:13.082Z,2.03
2023-03-07T18:42:40.419Z,1.92
2023-03-07T18:45:07.662Z,1.94
2023-03-07T18:47:34.181Z,1.98
2023-03-07T18:50:00.954Z,1.99
2023-03-07T18:52:27.585Z,1.98
2023-03-07T18:54:54.540Z,1.95
2023-03-07T18:57:21.232Z,1.99
2023-03-07T18:59:47.890Z,1.88
2023-03-07T19:02:14.600Z,1.75
2023-03-07T19:04:41.482Z,1.52
2023-03-07T19:07:08.278Z,1.44
2023-03-07T19:09:34.933Z,1.47
2023-03-07T19:12:01.613Z,1.53
2023-03-07T19:14:28.359Z,1.48
2023-03-07T19:16:54.958Z,1.54
2023-03-07T19:19:21.661Z,1.65
2023-03-07T19:21:48.365Z,1.65
2023-03-07T19:24:15.054Z,1.39
2023-03-07T19:26:43.446Z,1.15
2023-03-07T19:29:12.099Z,1.04
2023-03-07T19:31:38.888Z,1.05
2023-03-07T19:34:06.498Z,1.04
2023-03-07T19:36:35.337Z,1.13
2023-03-07T19:39:02.261Z,1.19
2023-03-07T19:41:31.345Z,1.14
2023-03-07T19:43:59.708Z,1.09
2023-03-07T19:46:26.727Z,1.13
2023-03-07T19:48:53.480Z,1.45
2023-03-07T19:51:24.046Z,1.45
2023-03-07T19:53:50.930Z,1.39
2023-03-07T19:56:29.833Z,1.37
2023-03-07T19:58:58.406Z,1.39
2023-03-07T20:01:26.202Z,1.46
2023-03-07T20:03:54.030Z,1.48
2023-03-07T20:06:23.195Z,1.61
2023-03-07T20:08:51.483Z,1.69
2023-03-07T20:11:21.474Z,1.80
2023-03-07T20:13:49.066Z,1.84
2023-03-07T20:16:18.585Z,1.94
2023-03-07T20:18:52.385Z,1.90
2023-03-07T20:21:21.191Z,2.05
2023-03-07T20:23:48.907Z,2.15
2023-03-07T20:26:19.982Z,2.14
2023-03-07T20:28:46.732Z,2.22
2023-03-07T20:31:13.684Z,2.25
2023-03-07T20:33:46.037Z,2.15
2023-03-07T20:36:18.568Z,2.12
2023-03-07T20:38:52.381Z,2.17
2023-03-07T20:41:21.115Z,2.52
2023-03-07T20:43:49.034Z,2.52
2023-03-07T20:46:18.012Z,2.47
2023-03-07T20:48:45.505Z,2.56
2023-03-07T20:51:23.684Z,3.08
2023-03-07T20:54:14.550Z,3.04
2023-03-07T20:56:41.858Z,3.03
2023-03-07T20:59:12.087Z,2.92
2023-03-07T21:01:39.106Z,3.14
2023-03-07T21:04:11.932Z,3.19
2023-03-07T21:06:40.773Z,3.25
2023-03-07T21:09:10.093Z,3.23
2023-03-07T21:11:38.587Z,3.12
2023-03-07T21:14:05.726Z,3.23
2023-03-07T21:16:32.685Z,3.10
2023-03-07T21:19:01.825Z,3.28
2023-03-07T21:21:29.917Z,3.11
2023-03-07T21:23:56.830Z,2.95
2023-03-07T21:26:29.378Z,2.87
2023-03-07T21:28:57.418Z,3.10
2023-03-07T21:31:25.525Z,3.09
2023-03-07T21:33:54.880Z,3.21
2023-03-07T21:36:23.327Z,3.09
2023-03-07T21:38:50.258Z,3.01
2023-03-07T21:41:19.115Z,3.10
2023-03-07T21:43:45.991Z,3.41
2023-03-07T21:46:13.751Z,3.60
2023-03-07T21:48:41.074Z,3.60
2023-03-07T21:51:08.975Z,3.45
2023-03-07T21:53:35.965Z,3.45
2023-03-07T21:56:05.600Z,3.40
2023-03-07T21:58:33.069Z,3.54
2023-03-07T22:00:59.885Z,3.55
2023-03-07T22:03:28.938Z,3.45
2023-03-07T22:05:57.385Z,3.73
2023-03-07T22:08:24.371Z,3.44
2023-03-07T22:11:00.072Z,3.57
2023-03-07T22:13:28.202Z,3.51
2023-03-07T22:16:03.449Z,3.58
2023-03-07T22:18:30.549Z,3.54
2023-03-07T22:20:57.385Z,3.24
2023-03-07T22:23:26.427Z,3.23
2023-03-07T22:25:53.733Z,3.45
2023-03-07T22:28:20.644Z,3.56
2023-03-07T22:30:49.346Z,3.68
2023-03-07T22:33:16.712Z,3.50
2023-03-07T22:35:43.334Z,3.47
2023-03-07T22:38:09.877Z,3.52
2023-03-07T22:40:39.461Z,3.57
2023-03-07T22:43:06.217Z,3.54
2023-03-07T22:45:32.886Z,3.45
2023-03-07T22:47:59.559Z,3.36
2023-03-07T22:50:26.291Z,3.36
2023-03-07T22:52:54.929Z,3.22
2023-03-07T22:55:22.047Z,3.40
2023-03-07T22:57:49.041Z,3.14
2023-03-07T23:00:15.981Z,3.17
2023-03-07T23:02:43.076Z,3.38
2023-03-07T23:05:10.091Z,3.26
2023-03-07T23:07:36.756Z,3.05
2023-03-07T23:10:03.780Z,3.24
2023-03-07T23:12:30.629Z,3.23
2023-03-07T23:14:57.522Z,3.16
2023-03-07T23:17:24.519Z,3.39
2023-03-07T23:19:52.033Z,3.34
2023-03-07T23:22:18.945Z,3.22
2023-03-07T23:24:45.548Z,3.21
2023-03-07T23:27:12.108Z,3.12
2023-03-07T23:29:38.840Z,3.31
2023-03-07T23:32:58.119Z,3.39
2023-03-07T23:35:24.760Z,3.23
2023-03-07T23:37:51.298Z,3.23
2023-03-07T23:40:18.441Z,3.28
2023-03-07T23:42:45.037Z,3.22
2023-03-07T23:45:11.799Z,3.23
2023-03-07T23:47:39.626Z,3.37
2023-03-07T23:50:07.950Z,3.36
2023-03-07T23:52:34.711Z,3.07
2023-03-07T23:55:01.419Z,3.38
2023-03-07T23:57:27.991Z,3.43
2023-03-07T23:59:54.674Z,3.14
